createdAt,value
2019-03-26T00:00:37.246Z,9.40
2019-03-26T00:01:43.207Z,9.38
2019-03-26T00:02:48.819Z,9.34
2019-03-26T00:04:05.359Z,9.34
2019-03-26T00:05:01.907Z,9.33
2019-03-26T00:06:07.597Z,9.33
2019-03-26T00:07:13.530Z,9.32
2019-03-26T00:08:19.154Z,9.30
2019-03-26T00:09:24.720Z,9.31
2019-03-26T00:10:30.866Z,9.29
2019-03-26T00:11:36.360Z,9.28
2019-03-26T00:12:42.349Z,9.27
2019-03-26T00:13:48.351Z,9.27
2019-03-26T00:14:54.338Z,9.27
2019-03-26T00:16:00.401Z,9.26
2019-03-26T00:17:06.026Z,9.26
2019-03-26T00:18:11.848Z,9.27
2019-03-26T00:19:17.366Z,9.27
2019-03-26T00:20:23.085Z,9.25
2019-03-26T00:21:28.692Z,9.24
2019-03-26T00:22:34.342Z,9.23
2019-03-26T00:23:40.354Z,9.23
2019-03-26T00:24:45.972Z,9.22
2019-03-26T00:25:51.897Z,9.23
2019-03-26T00:26:58.092Z,9.23
2019-03-26T00:28:04.095Z,9.24
2019-03-26T00:29:10.075Z,9.26
2019-03-26T00:30:15.855Z,9.27
2019-03-26T00:31:24.056Z,9.28
2019-03-26T00:32:29.671Z,9.27
2019-03-26T00:33:36.654Z,9.33
2019-03-26T00:34:42.934Z,9.34
2019-03-26T00:35:48.658Z,9.33
2019-03-26T00:36:54.363Z,9.32
2019-03-26T00:38:00.424Z,9.32
2019-03-26T00:39:07.597Z,9.32
2019-03-26T00:40:13.406Z,9.32
2019-03-26T00:41:19.400Z,9.32
2019-03-26T00:42:25.898Z,9.29
2019-03-26T00:43:31.520Z,9.31
2019-03-26T00:44:37.453Z,9.31
2019-03-26T00:45:43.099Z,9.31
2019-03-26T00:46:48.783Z,9.29
2019-03-26T00:47:54.678Z,9.28
2019-03-26T00:49:00.304Z,9.27
2019-03-26T00:50:09.721Z,9.25
2019-03-26T00:51:15.324Z,9.22
2019-03-26T00:52:21.056Z,9.20
2019-03-26T00:53:26.769Z,9.19
2019-03-26T00:54:32.372Z,9.21
2019-03-26T00:55:38.011Z,9.21
2019-03-26T00:56:43.646Z,9.21
2019-03-26T00:57:49.356Z,9.22
2019-03-26T00:58:54.981Z,9.19
2019-03-26T01:00:00.506Z,9.25
2019-03-26T01:01:06.305Z,9.25
2019-03-26T01:02:12.038Z,9.25
2019-03-26T01:03:17.694Z,9.26
2019-03-26T01:04:32.813Z,9.25
2019-03-26T01:05:30.830Z,9.25
2019-03-26T01:06:36.653Z,9.25
2019-03-26T01:07:42.359Z,9.23
2019-03-26T01:08:48.417Z,9.23
2019-03-26T01:09:53.942Z,9.23
2019-03-26T01:10:59.532Z,9.23
2019-03-26T01:12:05.257Z,9.19
2019-03-26T01:13:10.872Z,9.19
2019-03-26T01:14:16.808Z,9.18
2019-03-26T01:15:22.359Z,9.18
2019-03-26T01:16:28.066Z,9.17
2019-03-26T01:17:33.615Z,9.17
2019-03-26T01:18:39.904Z,9.17
2019-03-26T01:19:45.544Z,9.16
2019-03-26T01:20:51.163Z,9.17
2019-03-26T01:21:56.830Z,9.17
2019-03-26T01:23:02.809Z,9.15
2019-03-26T01:24:09.189Z,9.12
2019-03-26T01:25:14.787Z,9.12
2019-03-26T01:26:20.629Z,9.09
2019-03-26T01:27:26.326Z,9.07
2019-03-26T01:28:31.924Z,9.06
2019-03-26T01:29:37.521Z,9.05
2019-03-26T01:30:43.487Z,9.04
2019-03-26T01:31:49.511Z,9.02
2019-03-26T01:32:55.081Z,9.01
2019-03-26T01:34:01.017Z,9.01
2019-03-26T01:35:06.790Z,9.00
2019-03-26T01:36:12.759Z,9.00
2019-03-26T01:37:18.488Z,8.99
2019-03-26T01:38:24.005Z,9.00
2019-03-26T01:39:29.589Z,9.00
2019-03-26T01:40:35.125Z,9.01
2019-03-26T01:41:41.904Z,9.02
2019-03-26T01:42:47.670Z,9.05
2019-03-26T01:43:53.310Z,9.06
2019-03-26T01:44:58.971Z,9.08
2019-03-26T01:46:04.681Z,9.11
2019-03-26T01:47:10.596Z,9.11
2019-03-26T01:48:16.630Z,9.14
2019-03-26T01:49:22.237Z,9.14
2019-03-26T01:50:27.876Z,9.15
2019-03-26T01:51:33.488Z,9.16
2019-03-26T01:52:39.084Z,9.16
2019-03-26T01:53:44.707Z,9.17
2019-03-26T01:54:50.319Z,9.17
2019-03-26T01:55:55.966Z,9.18
2019-03-26T01:57:01.707Z,9.17
2019-03-26T01:58:07.380Z,9.18
2019-03-26T01:59:12.993Z,9.17
2019-03-26T02:00:18.686Z,9.16
2019-03-26T02:01:24.789Z,9.17
2019-03-26T02:02:30.607Z,9.18
2019-03-26T02:03:36.175Z,9.20
2019-03-26T02:04:42.269Z,9.21
2019-03-26T02:05:47.810Z,9.22
2019-03-26T02:06:53.430Z,9.22
2019-03-26T02:07:59.082Z,9.21
2019-03-26T02:09:05.726Z,9.19
2019-03-26T02:10:11.927Z,9.19
2019-03-26T02:11:17.446Z,9.18
2019-03-26T02:12:23.472Z,9.20
2019-03-26T02:13:29.154Z,9.20
2019-03-26T02:14:37.042Z,9.21
2019-03-26T02:15:43.088Z,9.21
2019-03-26T02:16:48.648Z,9.21
2019-03-26T02:17:54.553Z,9.21
2019-03-26T02:19:00.160Z,9.21
2019-03-26T02:20:06.166Z,9.19
2019-03-26T02:21:11.878Z,9.19
2019-03-26T02:22:17.582Z,9.17
2019-03-26T02:23:23.212Z,9.15
2019-03-26T02:24:28.898Z,9.14
2019-03-26T02:25:35.265Z,9.12
2019-03-26T02:26:40.868Z,9.10
2019-03-26T02:27:46.753Z,9.09
2019-03-26T02:28:52.465Z,9.09
2019-03-26T02:29:58.123Z,9.09
2019-03-26T02:31:03.721Z,9.09
2019-03-26T02:32:09.749Z,9.09
2019-03-26T02:33:15.424Z,9.07
2019-03-26T02:34:20.995Z,9.06
2019-03-26T02:35:26.630Z,9.05
2019-03-26T02:36:32.636Z,9.04
2019-03-26T02:37:38.141Z,9.03
2019-03-26T02:38:44.048Z,9.02
2019-03-26T02:39:49.659Z,9.02
2019-03-26T02:40:55.538Z,9.01
2019-03-26T02:42:01.128Z,9.02
2019-03-26T02:43:07.143Z,9.01
2019-03-26T02:44:12.879Z,9.01
2019-03-26T02:45:18.749Z,9.01
2019-03-26T02:46:24.721Z,9.00
2019-03-26T02:47:30.983Z,9.01
2019-03-26T02:48:36.977Z,8.99
2019-03-26T02:49:42.611Z,9.00
2019-03-26T02:50:48.475Z,9.01
2019-03-26T02:51:54.096Z,9.02
2019-03-26T02:52:59.820Z,9.03
2019-03-26T02:54:05.714Z,9.04
2019-03-26T02:55:11.513Z,9.05
2019-03-26T02:56:17.320Z,9.06
2019-03-26T02:57:22.962Z,9.05
2019-03-26T02:58:28.510Z,9.05
2019-03-26T02:59:34.185Z,9.06
2019-03-26T03:00:40.078Z,9.05
2019-03-26T03:01:45.671Z,9.07
2019-03-26T03:02:51.371Z,9.07
2019-03-26T03:03:57.242Z,9.08
2019-03-26T03:05:02.897Z,9.08
2019-03-26T03:06:08.703Z,9.08
2019-03-26T03:07:14.663Z,9.06
2019-03-26T03:08:20.970Z,9.04
2019-03-26T03:09:26.996Z,9.03
2019-03-26T03:10:32.762Z,9.03
2019-03-26T03:11:38.399Z,9.02
2019-03-26T03:12:44.015Z,9.00
2019-03-26T03:13:49.710Z,9.00
2019-03-26T03:14:55.232Z,9.00
2019-03-26T03:16:01.239Z,9.00
2019-03-26T03:17:06.829Z,8.99
2019-03-26T03:18:12.439Z,9.00
2019-03-26T03:19:18.194Z,9.01
2019-03-26T03:20:23.892Z,9.02
2019-03-26T03:21:29.480Z,9.04
2019-03-26T03:22:35.139Z,9.05
2019-03-26T03:23:40.955Z,9.06
2019-03-26T03:24:46.918Z,9.07
2019-03-26T03:25:52.993Z,9.08
2019-03-26T03:26:58.621Z,9.08
2019-03-26T03:28:04.242Z,9.08
2019-03-26T03:29:10.161Z,9.09
2019-03-26T03:30:15.916Z,9.08
2019-03-26T03:31:21.404Z,9.08
2019-03-26T03:32:27.457Z,9.07
2019-03-26T03:33:32.996Z,9.06
2019-03-26T03:34:38.685Z,9.06
2019-03-26T03:35:52.076Z,9.06
2019-03-26T03:36:51.820Z,9.05
2019-03-26T03:37:58.135Z,9.04
2019-03-26T03:39:05.631Z,9.04
2019-03-26T03:40:11.550Z,9.02
2019-03-26T03:41:17.661Z,9.02
2019-03-26T03:42:23.345Z,9.00
2019-03-26T03:43:28.934Z,8.98
2019-03-26T03:44:35.166Z,8.97
2019-03-26T03:45:41.659Z,8.96
2019-03-26T03:46:49.114Z,8.95
2019-03-26T03:47:55.518Z,8.98
2019-03-26T03:49:02.673Z,8.99
2019-03-26T03:50:09.530Z,9.01
2019-03-26T03:51:18.209Z,8.99
2019-03-26T03:52:26.847Z,8.98
2019-03-26T03:53:35.899Z,8.98
2019-03-26T03:54:44.241Z,8.97
2019-03-26T03:55:52.662Z,8.96
2019-03-26T03:57:00.857Z,8.98
2019-03-26T03:58:07.289Z,8.95
2019-03-26T03:59:13.452Z,8.95
2019-03-26T04:00:33.911Z,8.95
2019-03-26T04:01:39.543Z,8.94
2019-03-26T04:02:45.258Z,8.94
2019-03-26T04:03:51.246Z,8.92
2019-03-26T04:04:56.876Z,8.90
2019-03-26T04:06:09.702Z,8.90
2019-03-26T04:07:10.480Z,8.89
2019-03-26T04:08:16.387Z,8.88
2019-03-26T04:09:22.376Z,8.92
2019-03-26T04:10:28.113Z,8.92
2019-03-26T04:11:34.074Z,8.93
2019-03-26T04:12:39.977Z,8.94
2019-03-26T04:13:45.635Z,8.96
2019-03-26T04:14:51.266Z,8.98
2019-03-26T04:15:57.020Z,8.97
2019-03-26T04:17:02.661Z,8.97
2019-03-26T04:18:08.431Z,8.95
2019-03-26T04:19:14.015Z,8.95
2019-03-26T04:20:19.589Z,9.02
2019-03-26T04:21:29.125Z,9.04
2019-03-26T04:22:34.756Z,9.06
2019-03-26T04:23:40.249Z,9.07
2019-03-26T04:24:46.148Z,9.07
2019-03-26T04:25:52.674Z,9.08
2019-03-26T04:26:58.368Z,9.07
2019-03-26T04:28:04.414Z,9.07
2019-03-26T04:29:10.183Z,9.08
2019-03-26T04:30:22.871Z,9.09
2019-03-26T04:31:28.767Z,9.08
2019-03-26T04:32:34.370Z,9.09
2019-03-26T04:33:40.177Z,9.09
2019-03-26T04:34:45.860Z,9.09
2019-03-26T04:35:51.556Z,9.10
2019-03-26T04:36:57.244Z,9.13
2019-03-26T04:38:03.078Z,9.13
2019-03-26T04:39:09.035Z,9.13
2019-03-26T04:40:14.706Z,9.14
2019-03-26T04:41:20.863Z,9.12
2019-03-26T04:42:26.442Z,9.13
2019-03-26T04:43:32.340Z,9.11
2019-03-26T04:44:38.068Z,9.08
2019-03-26T04:45:44.193Z,9.05
2019-03-26T04:46:49.921Z,9.03
2019-03-26T04:47:55.676Z,9.01
2019-03-26T04:49:01.382Z,9.02
2019-03-26T04:50:07.737Z,9.04
2019-03-26T04:51:13.527Z,9.06
2019-03-26T04:52:19.150Z,9.06
2019-03-26T04:53:24.899Z,9.05
2019-03-26T04:54:30.577Z,9.03
2019-03-26T04:55:36.284Z,9.02
2019-03-26T04:56:42.250Z,9.00
2019-03-26T04:57:48.026Z,8.99
2019-03-26T04:58:53.847Z,9.00
2019-03-26T04:59:59.601Z,9.01
2019-03-26T05:01:05.353Z,9.03
2019-03-26T05:02:11.342Z,9.04
2019-03-26T05:03:17.042Z,9.05
2019-03-26T05:04:22.741Z,9.06
2019-03-26T05:05:28.413Z,9.08
2019-03-26T05:06:38.170Z,9.08
2019-03-26T05:07:41.421Z,9.10
2019-03-26T05:08:46.989Z,9.11
2019-03-26T05:09:52.671Z,9.11
2019-03-26T05:10:58.332Z,9.11
2019-03-26T05:12:04.324Z,9.11
2019-03-26T05:13:09.961Z,9.12
2019-03-26T05:14:15.633Z,9.11
2019-03-26T05:15:21.314Z,9.11
2019-03-26T05:16:26.982Z,9.10
2019-03-26T05:17:32.637Z,9.10
2019-03-26T05:18:38.629Z,9.11
2019-03-26T05:19:44.936Z,9.11
2019-03-26T05:20:50.525Z,9.10
2019-03-26T05:21:56.088Z,9.09
2019-03-26T05:23:01.673Z,9.09
2019-03-26T05:24:08.913Z,9.08
2019-03-26T05:25:15.078Z,9.07
2019-03-26T05:26:20.781Z,9.08
2019-03-26T05:27:26.772Z,9.08
2019-03-26T05:28:32.318Z,9.08
2019-03-26T05:29:37.945Z,9.07
2019-03-26T05:30:43.622Z,9.08
2019-03-26T05:31:49.272Z,9.09
2019-03-26T05:32:54.856Z,9.10
2019-03-26T05:34:00.382Z,9.12
2019-03-26T05:35:07.710Z,9.13
2019-03-26T05:36:13.452Z,9.14
2019-03-26T05:37:19.055Z,9.14
2019-03-26T05:38:24.715Z,9.16
2019-03-26T05:39:30.818Z,9.16
2019-03-26T05:40:36.496Z,9.17
2019-03-26T05:41:42.143Z,9.17
2019-03-26T05:42:47.893Z,9.18
2019-03-26T05:43:53.489Z,9.19
2019-03-26T05:44:59.065Z,9.21
2019-03-26T05:46:05.055Z,9.21
2019-03-26T05:47:10.981Z,9.21
2019-03-26T05:48:16.571Z,9.22
2019-03-26T05:49:22.363Z,9.20
2019-03-26T05:50:27.984Z,9.21
2019-03-26T05:51:33.625Z,9.20
2019-03-26T05:52:39.181Z,9.19
2019-03-26T05:53:44.870Z,9.21
2019-03-26T05:54:50.634Z,9.19
2019-03-26T05:55:56.495Z,9.17
2019-03-26T05:57:02.445Z,9.17
2019-03-26T05:58:08.107Z,9.18
2019-03-26T05:59:13.753Z,9.18
2019-03-26T06:00:24.695Z,9.19
2019-03-26T06:01:30.735Z,9.20
2019-03-26T06:02:36.413Z,9.20
2019-03-26T06:03:43.566Z,9.21
2019-03-26T06:04:49.253Z,9.21
2019-03-26T06:05:54.774Z,9.21
2019-03-26T06:07:05.016Z,9.22
2019-03-26T06:08:07.883Z,9.22
2019-03-26T06:09:13.618Z,9.19
2019-03-26T06:10:19.791Z,9.19
2019-03-26T06:11:25.523Z,9.18
2019-03-26T06:12:31.492Z,9.16
2019-03-26T06:13:37.410Z,9.14
2019-03-26T06:14:43.393Z,9.11
2019-03-26T06:15:49.230Z,9.10
2019-03-26T06:16:56.046Z,9.09
2019-03-26T06:18:01.836Z,9.10
2019-03-26T06:19:07.459Z,9.12
2019-03-26T06:20:13.764Z,9.11
2019-03-26T06:21:19.457Z,9.10
2019-03-26T06:22:25.505Z,9.09
2019-03-26T06:23:31.202Z,9.07
2019-03-26T06:24:36.828Z,9.08
2019-03-26T06:25:42.574Z,9.08
2019-03-26T06:26:48.105Z,9.07
2019-03-26T06:27:53.840Z,9.08
2019-03-26T06:29:01.249Z,9.08
2019-03-26T06:30:09.026Z,9.09
2019-03-26T06:31:14.716Z,9.09
2019-03-26T06:32:20.417Z,9.13
2019-03-26T06:33:26.164Z,9.14
2019-03-26T06:34:32.135Z,9.16
2019-03-26T06:35:38.103Z,9.17
2019-03-26T06:36:44.121Z,9.19
2019-03-26T06:37:49.893Z,9.19
2019-03-26T06:38:55.570Z,9.18
2019-03-26T06:40:01.166Z,9.19
2019-03-26T06:41:06.804Z,9.21
2019-03-26T06:42:12.463Z,9.20
2019-03-26T06:43:18.535Z,9.22
2019-03-26T06:44:24.332Z,9.24
2019-03-26T06:45:30.034Z,9.25
2019-03-26T06:46:35.803Z,9.27
2019-03-26T06:47:42.858Z,9.27
2019-03-26T06:48:50.692Z,9.28
2019-03-26T06:49:57.719Z,9.30
2019-03-26T06:51:05.247Z,9.30
2019-03-26T06:52:11.575Z,9.30
2019-03-26T06:53:17.220Z,9.29
2019-03-26T06:54:22.890Z,9.30
2019-03-26T06:55:28.465Z,9.31
2019-03-26T06:56:34.348Z,9.32
2019-03-26T06:57:40.082Z,9.34
2019-03-26T06:58:45.712Z,9.34
2019-03-26T06:59:51.679Z,9.34
2019-03-26T07:00:57.778Z,9.35
2019-03-26T07:02:04.368Z,9.36
2019-03-26T07:03:10.171Z,9.38
2019-03-26T07:04:15.976Z,9.39
2019-03-26T07:05:21.616Z,9.39
2019-03-26T07:06:27.384Z,9.41
2019-03-26T07:07:33.284Z,9.43
2019-03-26T07:08:39.301Z,9.46
2019-03-26T07:09:44.883Z,9.47
2019-03-26T07:10:50.515Z,9.48
2019-03-26T07:11:56.080Z,9.50
2019-03-26T07:13:01.785Z,9.52
2019-03-26T07:14:07.546Z,9.54
2019-03-26T07:15:13.431Z,9.55
2019-03-26T07:16:19.164Z,9.54
2019-03-26T07:17:25.068Z,9.54
2019-03-26T07:18:30.812Z,9.53
2019-03-26T07:19:36.541Z,9.54
2019-03-26T07:20:42.235Z,9.55
2019-03-26T07:21:49.717Z,9.56
2019-03-26T07:22:55.871Z,9.56
2019-03-26T07:24:01.729Z,9.59
2019-03-26T07:25:08.204Z,9.62
2019-03-26T07:26:14.331Z,9.63
2019-03-26T07:27:20.031Z,9.66
2019-03-26T07:28:25.750Z,9.69
2019-03-26T07:29:32.604Z,9.71
2019-03-26T07:30:42.656Z,9.71
2019-03-26T07:31:48.729Z,9.72
2019-03-26T07:32:54.417Z,9.73
2019-03-26T07:34:00.381Z,9.77
2019-03-26T07:35:06.265Z,9.79
2019-03-26T07:36:12.226Z,9.84
2019-03-26T07:37:17.879Z,9.89
2019-03-26T07:38:23.595Z,9.99
2019-03-26T07:39:29.499Z,9.97
2019-03-26T07:40:35.578Z,9.97
2019-03-26T07:41:41.659Z,10.04
2019-03-26T07:42:47.513Z,10.06
2019-03-26T07:43:53.532Z,10.06
2019-03-26T07:44:59.279Z,10.17
2019-03-26T07:46:04.921Z,10.17
2019-03-26T07:47:10.620Z,10.22
2019-03-26T07:48:16.602Z,10.22
2019-03-26T07:49:22.716Z,10.23
2019-03-26T07:50:28.828Z,10.22
2019-03-26T07:51:34.376Z,10.19
2019-03-26T07:52:40.499Z,10.19
2019-03-26T07:53:46.087Z,10.23
2019-03-26T07:54:51.817Z,10.27
2019-03-26T07:55:57.468Z,10.30
2019-03-26T07:57:03.158Z,10.30
2019-03-26T07:58:08.854Z,10.31
2019-03-26T07:59:14.502Z,10.32
2019-03-26T08:00:23.733Z,10.31
2019-03-26T08:01:29.488Z,10.31
2019-03-26T08:02:34.983Z,10.31
2019-03-26T08:03:40.903Z,10.27
2019-03-26T08:04:46.469Z,10.27
2019-03-26T08:05:52.133Z,10.32
2019-03-26T08:06:58.645Z,10.34
2019-03-26T08:08:04.426Z,10.32
2019-03-26T08:09:10.256Z,10.29
2019-03-26T08:10:15.857Z,10.27
2019-03-26T08:11:21.407Z,10.23
2019-03-26T08:12:26.970Z,10.21
2019-03-26T08:13:32.615Z,10.18
2019-03-26T08:14:38.360Z,10.14
2019-03-26T08:15:43.987Z,10.15
2019-03-26T08:16:49.681Z,10.13
2019-03-26T08:17:55.256Z,10.15
2019-03-26T08:19:01.249Z,10.19
2019-03-26T08:20:07.292Z,10.26
2019-03-26T08:21:12.849Z,10.31
2019-03-26T08:22:18.796Z,10.43
2019-03-26T08:23:24.530Z,10.43
2019-03-26T08:24:30.148Z,10.46
2019-03-26T08:25:36.201Z,10.48
2019-03-26T08:26:41.837Z,10.48
2019-03-26T08:27:47.977Z,10.51
2019-03-26T08:28:53.753Z,10.56
2019-03-26T08:29:59.302Z,10.61
2019-03-26T08:31:04.976Z,10.66
2019-03-26T08:32:10.595Z,10.71
2019-03-26T08:33:16.573Z,10.79
2019-03-26T08:34:22.124Z,10.85
2019-03-26T08:35:27.907Z,10.90
2019-03-26T08:36:33.568Z,10.97
2019-03-26T08:37:39.281Z,10.97
2019-03-26T08:38:45.173Z,10.99
2019-03-26T08:39:50.805Z,11.01
2019-03-26T08:40:56.545Z,11.03
2019-03-26T08:42:02.590Z,11.03
2019-03-26T08:43:08.155Z,11.03
2019-03-26T08:44:13.808Z,11.02
2019-03-26T08:45:19.635Z,11.01
2019-03-26T08:46:25.338Z,10.99
2019-03-26T08:47:30.910Z,10.97
2019-03-26T08:48:36.411Z,10.95
2019-03-26T08:49:41.930Z,10.92
2019-03-26T08:50:47.587Z,10.93
2019-03-26T08:51:53.297Z,10.91
2019-03-26T08:52:58.991Z,10.89
2019-03-26T08:54:05.194Z,10.87
2019-03-26T08:55:11.392Z,10.86
2019-03-26T08:56:17.017Z,10.87
2019-03-26T08:57:22.623Z,10.90
2019-03-26T08:58:28.179Z,10.93
2019-03-26T08:59:33.896Z,10.97
2019-03-26T09:00:39.479Z,11.03
2019-03-26T09:01:45.179Z,11.07
2019-03-26T09:02:50.777Z,11.10
2019-03-26T09:03:56.389Z,11.10
2019-03-26T09:05:02.054Z,11.09
2019-03-26T09:06:07.719Z,11.11
2019-03-26T09:07:13.575Z,11.13
2019-03-26T09:08:25.404Z,11.10
2019-03-26T09:09:26.608Z,11.09
2019-03-26T09:10:32.331Z,11.04
2019-03-26T09:11:37.898Z,11.01
2019-03-26T09:12:43.487Z,10.97
2019-03-26T09:13:49.151Z,10.90
2019-03-26T09:14:54.879Z,10.90
2019-03-26T09:16:00.621Z,10.89
2019-03-26T09:17:06.261Z,10.88
2019-03-26T09:18:11.913Z,10.89
2019-03-26T09:19:17.393Z,10.83
2019-03-26T09:20:23.171Z,10.94
2019-03-26T09:21:28.937Z,11.01
2019-03-26T09:22:34.554Z,11.07
2019-03-26T09:23:40.240Z,11.13
2019-03-26T09:24:46.159Z,11.21
2019-03-26T09:25:51.758Z,11.31
2019-03-26T09:26:57.340Z,11.38
2019-03-26T09:28:02.898Z,11.44
2019-03-26T09:29:09.073Z,11.48
2019-03-26T09:30:15.232Z,11.50
2019-03-26T09:31:21.361Z,11.50
2019-03-26T09:32:27.332Z,11.52
2019-03-26T09:33:32.902Z,11.50
2019-03-26T09:34:38.978Z,11.47
2019-03-26T09:35:44.608Z,11.45
2019-03-26T09:36:50.445Z,11.43
2019-03-26T09:37:56.250Z,11.42
2019-03-26T09:39:02.162Z,11.43
2019-03-26T09:40:09.343Z,11.45
2019-03-26T09:41:15.102Z,11.44
2019-03-26T09:42:21.193Z,11.43
2019-03-26T09:43:26.524Z,11.41
2019-03-26T09:44:32.121Z,11.40
2019-03-26T09:45:38.089Z,11.38
2019-03-26T09:46:43.701Z,11.39
2019-03-26T09:47:49.651Z,11.38
2019-03-26T09:48:55.537Z,11.38
2019-03-26T09:50:01.298Z,11.39
2019-03-26T09:51:06.916Z,11.40
2019-03-26T09:52:12.609Z,11.40
2019-03-26T09:53:18.364Z,11.40
2019-03-26T09:54:23.980Z,11.40
2019-03-26T09:55:30.041Z,11.38
2019-03-26T09:56:35.988Z,11.37
2019-03-26T09:57:41.651Z,11.34
2019-03-26T09:58:47.564Z,11.32
2019-03-26T09:59:53.254Z,11.26
2019-03-26T10:00:58.890Z,11.19
2019-03-26T10:02:05.525Z,11.16
2019-03-26T10:03:11.167Z,11.12
2019-03-26T10:04:17.067Z,11.11
2019-03-26T10:05:22.950Z,11.08
2019-03-26T10:06:28.629Z,11.06
2019-03-26T10:07:34.289Z,11.04
2019-03-26T10:08:51.802Z,11.05
2019-03-26T10:09:47.214Z,11.07
2019-03-26T10:10:52.880Z,11.07
2019-03-26T10:11:58.482Z,11.11
2019-03-26T10:13:04.475Z,11.14
2019-03-26T10:14:10.049Z,11.18
2019-03-26T10:15:15.845Z,11.23
2019-03-26T10:16:21.750Z,11.27
2019-03-26T10:17:27.837Z,11.30
2019-03-26T10:18:33.743Z,11.31
2019-03-26T10:19:39.398Z,11.29
2019-03-26T10:20:45.130Z,11.26
2019-03-26T10:21:50.900Z,11.21
2019-03-26T10:22:56.516Z,11.25
2019-03-26T10:24:02.445Z,11.29
2019-03-26T10:25:11.002Z,11.33
2019-03-26T10:26:16.229Z,11.36
2019-03-26T10:27:21.924Z,11.37
2019-03-26T10:28:28.000Z,11.39
2019-03-26T10:29:33.622Z,11.40
2019-03-26T10:30:40.326Z,11.40
2019-03-26T10:31:46.526Z,11.44
2019-03-26T10:32:52.357Z,11.48
2019-03-26T10:33:58.037Z,11.50
2019-03-26T10:35:03.727Z,11.52
2019-03-26T10:36:09.393Z,11.52
2019-03-26T10:37:15.105Z,11.51
2019-03-26T10:38:20.805Z,11.49
2019-03-26T10:39:26.428Z,11.49
2019-03-26T10:40:33.084Z,11.51
2019-03-26T10:41:38.798Z,11.54
2019-03-26T10:42:44.867Z,11.58
2019-03-26T10:43:50.812Z,11.64
2019-03-26T10:44:56.459Z,11.68
2019-03-26T10:46:02.483Z,11.70
2019-03-26T10:47:08.564Z,11.67
2019-03-26T10:48:14.253Z,11.66
2019-03-26T10:49:19.839Z,11.64
2019-03-26T10:50:25.542Z,11.63
2019-03-26T10:51:31.228Z,11.65
2019-03-26T10:52:36.872Z,11.66
2019-03-26T10:53:42.527Z,11.68
2019-03-26T10:54:48.568Z,11.71
2019-03-26T10:55:54.180Z,11.72
2019-03-26T10:57:00.177Z,11.76
2019-03-26T10:58:06.136Z,11.79
2019-03-26T10:59:11.658Z,11.78
2019-03-26T11:00:17.869Z,11.77
2019-03-26T11:01:23.504Z,11.64
2019-03-26T11:02:28.987Z,11.64
2019-03-26T11:03:34.626Z,11.65
2019-03-26T11:04:40.390Z,11.61
2019-03-26T11:05:46.044Z,11.60
2019-03-26T11:06:51.940Z,11.62
2019-03-26T11:07:57.735Z,11.65
2019-03-26T11:09:04.502Z,11.65
2019-03-26T11:10:10.936Z,11.67
2019-03-26T11:11:16.909Z,11.72
2019-03-26T11:12:22.530Z,11.75
2019-03-26T11:13:28.548Z,11.80
2019-03-26T11:14:34.171Z,11.83
2019-03-26T11:15:40.023Z,11.88
2019-03-26T11:16:45.670Z,11.93
2019-03-26T11:17:51.280Z,11.95
2019-03-26T11:18:57.386Z,11.94
2019-03-26T11:20:03.216Z,11.94
2019-03-26T11:21:08.885Z,11.93
2019-03-26T11:22:14.613Z,11.92
2019-03-26T11:23:20.214Z,11.89
2019-03-26T11:24:25.950Z,11.90
2019-03-26T11:25:31.909Z,11.89
2019-03-26T11:26:37.514Z,11.89
2019-03-26T11:27:43.476Z,11.87
2019-03-26T11:28:49.315Z,11.89
2019-03-26T11:29:54.957Z,11.92
2019-03-26T11:31:00.712Z,12.00
2019-03-26T11:32:06.403Z,12.06
2019-03-26T11:33:12.422Z,12.12
2019-03-26T11:34:18.091Z,12.18
2019-03-26T11:35:24.210Z,12.24
2019-03-26T11:36:30.032Z,12.31
2019-03-26T11:37:36.010Z,12.34
2019-03-26T11:38:41.764Z,12.33
2019-03-26T11:39:47.452Z,12.32
2019-03-26T11:40:53.452Z,12.31
2019-03-26T11:41:59.221Z,12.33
2019-03-26T11:43:05.073Z,12.34
2019-03-26T11:44:11.002Z,12.35
2019-03-26T11:45:17.035Z,12.35
2019-03-26T11:46:23.020Z,12.39
2019-03-26T11:47:28.628Z,12.38
2019-03-26T11:48:34.212Z,12.38
2019-03-26T11:49:39.942Z,12.40
2019-03-26T11:50:45.650Z,12.47
2019-03-26T11:51:51.247Z,12.57
2019-03-26T11:52:56.923Z,12.67
2019-03-26T11:54:02.567Z,12.77
2019-03-26T11:55:09.284Z,12.85
2019-03-26T11:56:15.476Z,12.92
2019-03-26T11:57:21.444Z,12.96
2019-03-26T11:58:30.829Z,12.99
2019-03-26T11:59:34.694Z,12.95
2019-03-26T12:00:40.405Z,12.89
2019-03-26T12:01:46.041Z,12.84
2019-03-26T12:02:52.067Z,12.80
2019-03-26T12:03:58.110Z,12.76
2019-03-26T12:05:04.082Z,12.72
2019-03-26T12:06:09.800Z,12.68
2019-03-26T12:07:16.114Z,12.67
2019-03-26T12:08:24.798Z,12.70
2019-03-26T12:09:30.765Z,12.74
2019-03-26T12:10:36.578Z,12.76
2019-03-26T12:11:42.213Z,12.78
2019-03-26T12:12:47.879Z,12.81
2019-03-26T12:13:53.735Z,12.84
2019-03-26T12:14:59.399Z,12.84
2019-03-26T12:16:05.149Z,12.84
2019-03-26T12:17:10.912Z,12.84
2019-03-26T12:18:16.974Z,12.83
2019-03-26T12:19:22.586Z,12.83
2019-03-26T12:20:28.336Z,12.82
2019-03-26T12:21:34.118Z,12.84
2019-03-26T12:22:39.876Z,12.83
2019-03-26T12:23:46.067Z,12.86
2019-03-26T12:24:51.727Z,12.89
2019-03-26T12:25:57.528Z,12.94
2019-03-26T12:27:03.829Z,12.96
2019-03-26T12:28:09.527Z,12.97
2019-03-26T12:29:15.496Z,12.96
2019-03-26T12:30:33.510Z,12.92
2019-03-26T12:31:39.207Z,12.91
2019-03-26T12:32:45.302Z,12.92
2019-03-26T12:33:50.977Z,12.90
2019-03-26T12:34:57.215Z,12.89
2019-03-26T12:36:02.950Z,12.90
2019-03-26T12:37:08.618Z,12.89
2019-03-26T12:38:21.606Z,12.87
2019-03-26T12:39:27.235Z,12.86
2019-03-26T12:40:32.938Z,12.84
2019-03-26T12:41:38.770Z,12.80
2019-03-26T12:42:44.505Z,12.77
2019-03-26T12:43:50.182Z,12.77
2019-03-26T12:44:56.143Z,12.77
2019-03-26T12:46:02.117Z,12.78
2019-03-26T12:47:07.780Z,12.76
2019-03-26T12:48:13.747Z,12.75
2019-03-26T12:49:19.742Z,12.77
2019-03-26T12:50:25.508Z,12.80
2019-03-26T12:51:31.121Z,12.85
2019-03-26T12:52:36.792Z,12.86
2019-03-26T12:53:42.773Z,12.89
2019-03-26T12:54:48.480Z,12.93
2019-03-26T12:55:54.231Z,12.92
2019-03-26T12:57:00.243Z,12.90
2019-03-26T12:58:05.950Z,12.87
2019-03-26T12:59:12.480Z,12.87
2019-03-26T13:00:21.148Z,12.90
2019-03-26T13:01:27.589Z,12.91
2019-03-26T13:02:35.788Z,12.94
2019-03-26T13:03:40.889Z,12.96
2019-03-26T13:04:46.540Z,13.00
2019-03-26T13:05:52.193Z,13.03
2019-03-26T13:06:58.175Z,13.05
2019-03-26T13:08:03.831Z,13.05
2019-03-26T13:09:10.386Z,13.08
2019-03-26T13:10:16.275Z,13.09
2019-03-26T13:11:22.335Z,13.05
2019-03-26T13:12:28.096Z,13.02
2019-03-26T13:13:33.795Z,12.96
2019-03-26T13:14:39.643Z,12.89
2019-03-26T13:15:45.294Z,12.82
2019-03-26T13:16:51.343Z,12.74
2019-03-26T13:17:57.552Z,12.65
2019-03-26T13:19:03.340Z,12.57
2019-03-26T13:20:09.399Z,12.52
2019-03-26T13:21:15.328Z,12.50
2019-03-26T13:22:21.116Z,12.46
2019-03-26T13:23:27.046Z,12.43
2019-03-26T13:24:32.725Z,12.40
2019-03-26T13:25:38.427Z,12.41
2019-03-26T13:26:44.039Z,12.37
2019-03-26T13:27:49.834Z,12.34
2019-03-26T13:28:55.660Z,12.33
2019-03-26T13:30:01.738Z,12.33
2019-03-26T13:31:07.488Z,12.34
2019-03-26T13:32:13.316Z,12.37
2019-03-26T13:33:19.083Z,12.36
2019-03-26T13:34:24.859Z,12.37
2019-03-26T13:35:30.502Z,12.38
2019-03-26T13:36:36.127Z,12.39
2019-03-26T13:37:42.475Z,12.41
2019-03-26T13:38:48.121Z,12.42
2019-03-26T13:39:53.959Z,12.43
2019-03-26T13:40:59.617Z,12.44
2019-03-26T13:42:05.346Z,12.46
2019-03-26T13:43:11.045Z,12.48
2019-03-26T13:44:16.989Z,12.47
2019-03-26T13:45:22.729Z,12.46
2019-03-26T13:46:28.391Z,12.43
2019-03-26T13:47:34.746Z,12.40
2019-03-26T13:48:40.450Z,12.36
2019-03-26T13:49:46.055Z,12.33
2019-03-26T13:50:51.782Z,12.31
2019-03-26T13:51:57.491Z,12.30
2019-03-26T13:53:03.146Z,12.27
2019-03-26T13:54:09.212Z,12.22
2019-03-26T13:55:15.012Z,12.17
2019-03-26T13:56:20.582Z,12.11
2019-03-26T13:57:26.277Z,12.05
2019-03-26T13:58:32.017Z,12.03
2019-03-26T13:59:37.652Z,12.00
2019-03-26T14:00:43.494Z,12.01
2019-03-26T14:01:49.216Z,12.03
2019-03-26T14:02:55.356Z,12.04
2019-03-26T14:04:00.991Z,12.06
2019-03-26T14:05:10.744Z,12.07
2019-03-26T14:06:16.737Z,12.08
2019-03-26T14:07:22.609Z,12.08
2019-03-26T14:08:28.303Z,12.07
2019-03-26T14:09:34.040Z,12.06
2019-03-26T14:10:41.129Z,12.07
2019-03-26T14:11:47.328Z,12.12
2019-03-26T14:12:53.022Z,12.19
2019-03-26T14:13:58.850Z,12.24
2019-03-26T14:15:04.671Z,12.31
2019-03-26T14:16:10.467Z,12.35
2019-03-26T14:17:16.061Z,12.39
2019-03-26T14:18:22.001Z,12.39
2019-03-26T14:19:28.263Z,12.37
2019-03-26T14:20:34.515Z,12.35
2019-03-26T14:21:40.137Z,12.33
2019-03-26T14:22:45.892Z,12.32
2019-03-26T14:23:51.452Z,12.32
2019-03-26T14:24:57.130Z,12.32